createdAt,value
2023-04-10T00:00:00.550Z,54
2023-04-10T00:04:01.019Z,49
2023-04-10T00:08:00.541Z,52
2023-04-10T00:12:00.576Z,45
2023-04-10T00:16:00.543Z,48
2023-04-10T00:20:00.587Z,49
2023-04-10T00:24:00.607Z,46
2023-04-10T00:28:00.549Z,49
2023-04-10T00:32:00.614Z,46
2023-04-10T00:36:00.607Z,47
2023-04-10T00:40:00.631Z,47
2023-04-10T00:44:00.593Z,38
2023-04-10T00:48:00.622Z,44
2023-04-10T00:52:00.597Z,52
2023-04-10T00:56:00.557Z,49
2023-04-10T01:00:00.547Z,48
2023-04-10T01:04:01.052Z,50
2023-04-10T01:08:00.577Z,48
2023-04-10T01:12:00.605Z,52
2023-04-10T01:16:00.553Z,54
2023-04-10T01:20:00.847Z,53
2023-04-10T01:24:00.580Z,53
2023-04-10T01:28:00.634Z,60
2023-04-10T01:32:00.621Z,58
2023-04-10T01:36:00.644Z,63
2023-04-10T01:40:00.631Z,52
2023-04-10T01:44:00.531Z,65
2023-04-10T01:48:00.641Z,70
2023-04-10T01:52:00.589Z,58
2023-04-10T01:56:00.545Z,65
2023-04-10T02:00:00.556Z,63
2023-04-10T02:04:00.649Z,64
2023-04-10T02:08:00.594Z,59
2023-04-10T02:12:01.557Z,53
2023-04-10T02:16:02.056Z,57
2023-04-10T02:20:00.556Z,62
2023-04-10T02:24:00.523Z,50
2023-04-10T02:28:00.537Z,58
2023-04-10T02:32:00.513Z,58
2023-04-10T02:36:00.601Z,49
2023-04-10T02:40:00.557Z,63
2023-04-10T02:44:00.520Z,60
2023-04-10T02:48:00.592Z,63
2023-04-10T02:52:00.541Z,59
2023-04-10T02:56:00.564Z,53
2023-04-10T03:00:00.523Z,53
2023-04-10T03:04:00.605Z,54
2023-04-10T03:08:00.538Z,52
2023-04-10T03:12:00.528Z,50
2023-04-10T03:16:00.540Z,47
2023-04-10T03:20:00.536Z,45
2023-04-10T03:24:00.533Z,45
2023-04-10T03:28:00.543Z,54
2023-04-10T03:32:00.605Z,39
2023-04-10T03:36:00.600Z,51
2023-04-10T03:40:00.576Z,67
2023-04-10T03:44:00.547Z,64
2023-04-10T03:48:00.649Z,54
2023-04-10T03:52:00.534Z,55
2023-04-10T03:56:00.537Z,52
2023-04-10T04:00:00.589Z,58
2023-04-10T04:04:01.111Z,47
2023-04-10T04:08:00.540Z,59
2023-04-10T04:12:00.552Z,50
2023-04-10T04:16:00.505Z,48
2023-04-10T04:20:00.536Z,67
2023-04-10T04:24:00.543Z,50
2023-04-10T04:28:00.536Z,60
2023-04-10T04:32:00.570Z,49
2023-04-10T04:36:00.541Z,54
2023-04-10T04:40:00.559Z,62
2023-04-10T04:44:00.549Z,52
2023-04-10T04:48:00.635Z,54
2023-04-10T04:52:00.555Z,57
2023-04-10T04:56:00.578Z,55
2023-04-10T05:00:00.567Z,47
2023-04-10T05:04:00.586Z,51
2023-04-10T05:08:00.568Z,56
2023-04-10T05:12:00.565Z,60
2023-04-10T05:16:00.630Z,49
2023-04-10T05:20:00.531Z,56
2023-04-10T05:24:00.532Z,60
2023-04-10T05:28:00.557Z,50
2023-04-10T05:32:00.610Z,63
2023-04-10T05:36:00.675Z,59
2023-04-10T05:40:00.568Z,56
2023-04-10T05:44:00.527Z,65
2023-04-10T05:48:00.568Z,47
2023-04-10T05:52:00.567Z,52
2023-04-10T05:56:00.527Z,53
2023-04-10T06:00:00.556Z,46
2023-04-10T06:04:00.720Z,48
2023-04-10T06:08:00.550Z,45
2023-04-10T06:12:00.520Z,37
2023-04-10T06:16:00.931Z,31
2023-04-10T06:20:00.520Z,31
2023-04-10T06:24:00.542Z,30
2023-04-10T06:28:00.577Z,30
2023-04-10T06:32:00.646Z,30
2023-04-10T06:36:00.542Z,32
2023-04-10T06:40:00.566Z,27
2023-04-10T06:44:02.592Z,29
2023-04-10T06:48:00.620Z,27
2023-04-10T06:52:00.566Z,35
2023-04-10T06:56:03.107Z,28
2023-04-10T07:00:00.561Z,39
2023-04-10T07:04:00.600Z,36
2023-04-10T07:08:00.552Z,42
2023-04-10T07:12:00.534Z,40
2023-04-10T07:16:00.586Z,36
2023-04-10T07:20:00.530Z,46
2023-04-10T07:24:00.573Z,40
2023-04-10T07:28:00.680Z,38
2023-04-10T07:32:00.668Z,46
2023-04-10T07:36:00.564Z,40
2023-04-10T07:40:00.551Z,42
2023-04-10T07:44:00.572Z,47
2023-04-10T07:48:00.618Z,48
2023-04-10T07:52:00.558Z,44
2023-04-10T07:56:00.535Z,43
2023-04-10T08:00:00.534Z,49
2023-04-10T08:04:02.876Z,40
2023-04-10T08:08:00.546Z,47
2023-04-10T08:12:00.570Z,32
2023-04-10T08:16:00.526Z,46
2023-04-10T08:20:00.553Z,35
2023-04-10T08:24:00.541Z,45
2023-04-10T08:28:00.554Z,32
2023-04-10T08:32:00.527Z,39
2023-04-10T08:36:00.557Z,39
2023-04-10T08:40:00.560Z,37
2023-04-10T08:44:00.565Z,39
2023-04-10T08:48:00.648Z,38
2023-04-10T08:52:00.543Z,36
2023-04-10T08:56:00.548Z,37
2023-04-10T09:00:04.303Z,30
2023-04-10T09:04:01.764Z,30
2023-04-10T09:08:00.528Z,37
2023-04-10T09:12:00.905Z,31
2023-04-10T09:16:00.722Z,23
2023-04-10T09:20:00.587Z,30
2023-04-10T09:24:00.540Z,25
2023-04-10T09:28:00.563Z,26
2023-04-10T09:32:00.532Z,20
2023-04-10T09:36:00.670Z,20
2023-04-10T09:40:00.557Z,22
2023-04-10T09:44:00.564Z,18
2023-04-10T09:48:00.557Z,24
2023-04-10T09:52:00.543Z,25
2023-04-10T09:56:00.524Z,22
2023-04-10T10:00:00.529Z,23
2023-04-10T10:04:00.533Z,26
2023-04-10T10:08:00.552Z,20
2023-04-10T10:12:00.536Z,23
2023-04-10T10:16:00.552Z,20
2023-04-10T10:20:00.546Z,25
2023-04-10T10:24:00.558Z,29
2023-04-10T10:28:00.540Z,25
2023-04-10T10:32:00.585Z,24
2023-04-10T10:36:00.514Z,21
2023-04-10T10:40:00.552Z,15
2023-04-10T10:44:00.542Z,24
2023-04-10T10:48:00.626Z,18
2023-04-10T10:52:00.550Z,20
2023-04-10T10:56:00.557Z,14
2023-04-10T11:00:00.551Z,21
2023-04-10T11:04:00.627Z,16
2023-04-10T11:08:00.565Z,18
2023-04-10T11:12:00.543Z,16
2023-04-10T11:16:00.537Z,15
2023-04-10T11:20:00.577Z,10
2023-04-10T11:24:00.571Z,11
2023-04-10T11:28:00.557Z,9
2023-04-10T11:32:00.543Z,15
2023-04-10T11:36:00.551Z,10
2023-04-10T11:40:00.529Z,11
2023-04-10T11:44:00.539Z,12
2023-04-10T11:48:00.629Z,16
2023-04-10T11:52:00.519Z,11
2023-04-10T11:56:00.570Z,21
2023-04-10T12:00:00.535Z,12
2023-04-10T12:04:00.774Z,13
2023-04-10T12:08:00.530Z,11
2023-04-10T12:12:00.524Z,11
2023-04-10T12:16:00.572Z,9
2023-04-10T12:20:00.534Z,9
2023-04-10T12:24:00.532Z,15
2023-04-10T12:28:00.546Z,11
2023-04-10T12:32:00.531Z,13
2023-04-10T12:36:00.589Z,13
2023-04-10T12:40:00.555Z,19
2023-04-10T12:44:00.573Z,16
2023-04-10T12:48:00.624Z,20
2023-04-10T12:52:00.548Z,12
2023-04-10T12:56:00.541Z,11
2023-04-10T13:00:00.535Z,16
2023-04-10T13:04:00.762Z,13
2023-04-10T13:08:00.558Z,14
2023-04-10T13:12:00.537Z,9
2023-04-10T13:16:00.626Z,11
2023-04-10T13:20:00.547Z,14
2023-04-10T13:24:00.529Z,13
2023-04-10T13:28:00.550Z,10
2023-04-10T13:32:00.560Z,13
2023-04-10T13:36:00.661Z,14
2023-04-10T13:40:00.541Z,11
2023-04-10T13:44:00.551Z,19
2023-04-10T13:48:00.591Z,12
2023-04-10T13:52:00.548Z,16
2023-04-10T13:56:00.539Z,14
2023-04-10T14:00:00.535Z,16
2023-04-10T14:04:00.642Z,14
2023-04-10T14:08:00.544Z,17
2023-04-10T14:12:00.557Z,17
2023-04-10T14:16:00.528Z,14
2023-04-10T14:20:00.541Z,15
2023-04-10T14:24:00.560Z,18
2023-04-10T14:28:00.549Z,15
2023-04-10T14:32:00.570Z,17
2023-04-10T14:36:00.555Z,13
2023-04-10T14:40:00.536Z,16
2023-04-10T14:44:00.533Z,14
2023-04-10T14:48:00.645Z,14
2023-04-10T14:52:00.538Z,16
2023-04-10T14:56:00.536Z,14
2023-04-10T15:00:00.550Z,11
2023-04-10T15:04:00.703Z,11
2023-04-10T15:08:00.649Z,10
2023-04-10T15:12:00.620Z,11
2023-04-10T15:16:00.554Z,11
2023-04-10T15:20:00.557Z,12
2023-04-10T15:24:00.527Z,12
2023-04-10T15:28:02.031Z,9
2023-04-10T15:32:00.675Z,14
2023-04-10T15:36:00.831Z,10
2023-04-10T15:40:00.582Z,15
2023-04-10T15:44:00.563Z,11
2023-04-10T15:48:00.571Z,13
2023-04-10T15:52:00.525Z,15
2023-04-10T15:56:00.530Z,12
2023-04-10T16:00:00.656Z,13
2023-04-10T16:04:00.762Z,16
2023-04-10T16:08:00.556Z,11
2023-04-10T16:12:00.564Z,14
2023-04-10T16:16:00.556Z,12
2023-04-10T16:20:00.599Z,13
2023-04-10T16:24:00.528Z,20
2023-04-10T16:28:00.535Z,12
2023-04-10T16:32:00.534Z,16
2023-04-10T16:36:00.571Z,16
2023-04-10T16:40:00.641Z,16
2023-04-10T16:44:00.559Z,14
2023-04-10T16:48:00.685Z,18
2023-04-10T16:52:00.538Z,14
2023-04-10T16:56:02.931Z,11
2023-04-10T17:00:00.804Z,22
2023-04-10T17:04:00.570Z,21
2023-04-10T17:08:00.533Z,13
2023-04-10T17:12:00.564Z,17
2023-04-10T17:16:00.538Z,17
2023-04-10T17:20:00.550Z,20
2023-04-10T17:24:00.577Z,20
2023-04-10T17:28:00.543Z,27
2023-04-10T17:32:00.668Z,41
2023-04-10T17:36:00.532Z,15
2023-04-10T17:40:00.572Z,20
2023-04-10T17:44:00.554Z,17
2023-04-10T17:48:00.742Z,31
2023-04-10T17:52:00.572Z,24
2023-04-10T17:56:00.532Z,78
2023-04-10T18:00:00.563Z,69
2023-04-10T18:04:00.645Z,104
2023-04-10T18:08:00.543Z,42
2023-04-10T18:12:00.529Z,35
2023-04-10T18:16:00.531Z,34
2023-04-10T18:20:00.545Z,52
2023-04-10T18:24:00.545Z,51
2023-04-10T18:32:00.531Z,41
2023-04-10T18:36:00.566Z,35
2023-04-10T18:40:13.553Z,30
2023-04-10T18:44:05.388Z,33
2023-04-10T18:48:00.590Z,27
2023-04-10T18:52:00.585Z,36
2023-04-10T18:56:00.532Z,33
2023-04-10T19:00:00.551Z,33
2023-04-10T19:04:01.049Z,37
2023-04-10T19:08:04.322Z,27
2023-04-10T19:12:00.541Z,25
2023-04-10T19:16:00.638Z,25
2023-04-10T19:20:00.638Z,24
2023-04-10T19:24:00.553Z,22
2023-04-10T19:28:00.514Z,21
2023-04-10T19:32:00.544Z,19
2023-04-10T19:36:00.580Z,15
2023-04-10T19:40:00.562Z,17
2023-04-10T19:44:00.582Z,19
2023-04-10T19:48:00.636Z,21
2023-04-10T19:52:00.541Z,21
2023-04-10T19:56:00.552Z,16
2023-04-10T20:00:00.575Z,14
2023-04-10T20:04:00.641Z,14
2023-04-10T20:08:00.531Z,15
2023-04-10T20:12:00.550Z,16
2023-04-10T20:16:00.532Z,16
2023-04-10T20:20:00.524Z,13
2023-04-10T20:24:00.544Z,16
2023-04-10T20:28:00.537Z,17
2023-04-10T20:32:00.633Z,15
2023-04-10T20:36:00.613Z,12
2023-04-10T20:40:00.532Z,12
2023-04-10T20:44:00.558Z,14
2023-04-10T20:48:00.573Z,11
2023-04-10T20:52:00.542Z,11
2023-04-10T20:56:00.515Z,14
2023-04-10T21:00:00.529Z,15
2023-04-10T21:04:00.783Z,14
2023-04-10T21:08:00.560Z,13
2023-04-10T21:12:00.555Z,15
2023-04-10T21:16:00.515Z,13
2023-04-10T21:20:00.562Z,16
2023-04-10T21:24:00.542Z,11
2023-04-10T21:28:00.548Z,15
2023-04-10T21:32:00.603Z,14
2023-04-10T21:36:00.613Z,15
2023-04-10T21:40:00.551Z,14
2023-04-10T21:44:00.566Z,12
2023-04-10T21:48:00.720Z,14
2023-04-10T21:52:00.569Z,13
2023-04-10T21:56:00.509Z,11
2023-04-10T22:00:00.543Z,12
2023-04-10T22:04:00.665Z,14
2023-04-10T22:08:00.567Z,11
2023-04-10T22:12:00.525Z,12
2023-04-10T22:16:00.536Z,11
2023-04-10T22:20:00.535Z,13
2023-04-10T22:24:00.556Z,14
2023-04-10T22:28:00.557Z,16
2023-04-10T22:32:00.541Z,14
2023-04-10T22:36:00.560Z,12
2023-04-10T22:40:00.586Z,13
2023-04-10T22:44:00.528Z,17
2023-04-10T22:48:00.561Z,11
2023-04-10T22:52:00.526Z,12
2023-04-10T22:56:00.541Z,15
2023-04-10T23:00:00.993Z,18
2023-04-10T23:04:00.626Z,11
2023-04-10T23:08:00.559Z,14
2023-04-10T23:12:00.570Z,15
2023-04-10T23:16:00.534Z,13
2023-04-10T23:20:00.535Z,13
2023-04-10T23:24:00.543Z,13
2023-04-10T23:28:00.519Z,11
2023-04-10T23:32:00.556Z,11
2023-04-10T23:36:00.568Z,12
2023-04-10T23:40:00.593Z,16
2023-04-10T23:44:00.536Z,14
2023-04-10T23:48:00.599Z,15
2023-04-10T23:52:00.553Z,11
2023-04-10T23:56:00.536Z,15
